Garden City Regional Airport
KGCK : now visible

Airfield :











YOU CAN JOIN US ON...

 
LOGIN :

Register | Disclaimer

   EN    FR    IT 

 









Legend :    VFR   Marginal VFR   IFR   Intensive IFR   Very Intensive IFR
Visi :
Ceiling :
>= 8 km
>= 3000ft
5 to 8 km
1000 to 3000 ft
1500m to 5 km
500 to 1000 ft
800 to 1500m
200 to 500 ft
< 800m
< 200 ft
Symbols :   Thunderstorms  Fog  Heavy snow  Heavy precipitations  Wind > 20 kt






- Airport Elevation : 2891 ft
- IATA code : GCK


KGCK - Garden City Regional

CURRENT METAR :
  • 100154Z 09008KT 10SM CLR 29/18 A2994 RMK AO2 SLP101 T02890183

EXPIRED METARs :
  • 100054Z 10016KT 10SM CLR 31/18 A2992 RMK AO2 SLP092 T03110183
  • 092354Z 12013G18KT 10SM FEW055 32/18 A2993 RMK AO2 SLP094 T03220183 10328 20289 51001

TAF KGCK
Valid from the 10 at 00:00 until the 11 at 00:00 UTC


092320Z 1000/1024 07013G23KT P6SM SCT060
FM100300 07013KT P6SM SCT200
FM100600 06012G22KT P6SM OVC060
FM100900 08009KT 2SM BR OVC010
FM101500 11008KT P6SM BKN020
FM101800 11008KT P6SM SCT060 SCT150
KZKC FIR / North America



MET'MAP, your aeronautical weather chart ! - Copyright ORBIFLY December 2007 - Disclaimer

ORBIFLY MET'MAP TEAM :

Programming & Development : Alexandra Zaïnal
Concept & original design : Baudouin d'Aumeries
Assistance for programming : Marc-Olivier Méhu
Technical & hardware support : Manuel Goepfert

Contact : metmap@orbifly.com




SOURCES & CREDITS :

   NOAA       Earth
Advisory